Aviation Digital Data Service (ADDS)

Output produced by METARs form (2221 UTC 21 May 2022)
found at http://www.aviationweather.gov/metar/data/
 
GQPP 212200Z 36016KT 7000 DRSA NSC 19/17 Q1015 NOSIG
TAF GQPP 211700Z 2118/2218 36018KT 7000 NSC